createdAt,value
2019-06-20T00:00:52.837Z,21.10
2019-06-20T00:03:23.111Z,21.20
2019-06-20T00:05:53.425Z,21.10
2019-06-20T00:08:23.627Z,21.20
2019-06-20T00:10:53.852Z,21.20
2019-06-20T00:13:24.059Z,21.10
2019-06-20T00:15:54.331Z,21.20
2019-06-20T00:18:24.975Z,21.00
2019-06-20T00:20:55.215Z,21.00
2019-06-20T00:23:25.727Z,21.00
2019-06-20T00:25:55.962Z,20.90
2019-06-20T00:28:26.237Z,20.80
2019-06-20T00:30:56.470Z,20.70
2019-06-20T00:33:26.681Z,20.70
2019-06-20T00:35:57.166Z,20.70
2019-06-20T00:38:27.439Z,20.60
2019-06-20T00:40:57.888Z,20.60
2019-06-20T00:43:28.168Z,20.60
2019-06-20T00:45:58.403Z,20.70
2019-06-20T00:48:28.696Z,20.60
2019-06-20T00:50:58.925Z,20.50
2019-06-20T00:53:29.195Z,20.50
2019-06-20T00:55:59.432Z,20.40
2019-06-20T00:58:29.642Z,20.40
2019-06-20T01:00:59.882Z,20.40
2019-06-20T01:03:31.738Z,20.40
2019-06-20T01:06:02.222Z,20.30
2019-06-20T01:08:32.906Z,20.30
2019-06-20T01:11:03.319Z,20.30
2019-06-20T01:13:34.517Z,20.20
2019-06-20T01:16:04.919Z,20.00
2019-06-20T01:18:35.136Z,19.90
2019-06-20T01:21:05.358Z,19.90
2019-06-20T01:23:35.575Z,20.10
2019-06-20T01:26:05.871Z,20.20
2019-06-20T01:28:36.070Z,20.10
2019-06-20T01:31:06.338Z,20.20
2019-06-20T01:33:36.554Z,20.00
2019-06-20T01:36:06.871Z,20.00
2019-06-20T01:38:37.167Z,19.80
2019-06-20T01:41:07.674Z,19.80
2019-06-20T01:43:50.040Z,19.80
2019-06-20T01:46:09.810Z,19.80
2019-06-20T01:48:40.083Z,19.80
2019-06-20T01:51:10.340Z,19.80
2019-06-20T01:53:40.563Z,19.70
2019-06-20T01:56:10.778Z,19.70
2019-06-20T01:58:41.036Z,19.70
2019-06-20T02:01:11.281Z,19.80
2019-06-20T02:03:41.842Z,19.70
2019-06-20T02:06:12.103Z,19.50
2019-06-20T02:08:42.412Z,19.60
2019-06-20T02:11:13.745Z,19.60
2019-06-20T02:13:43.973Z,19.60
2019-06-20T02:16:14.236Z,19.50
2019-06-20T02:18:44.531Z,19.50
2019-06-20T02:21:15.061Z,19.50
2019-06-20T02:23:48.437Z,19.50
2019-06-20T02:26:18.819Z,19.60
2019-06-20T02:28:49.194Z,19.60
2019-06-20T02:31:20.914Z,19.70
2019-06-20T02:33:51.162Z,19.50
2019-06-20T02:36:21.498Z,19.60
2019-06-20T02:38:51.814Z,19.70
2019-06-20T02:41:22.103Z,19.60
2019-06-20T02:43:52.444Z,19.60
2019-06-20T02:46:22.757Z,19.50
2019-06-20T02:48:53.067Z,19.60
2019-06-20T02:51:23.313Z,19.60
2019-06-20T02:53:53.557Z,19.60
2019-06-20T02:56:23.794Z,19.60
2019-06-20T02:58:54.251Z,19.70
2019-06-20T03:01:25.900Z,19.50
2019-06-20T03:03:56.191Z,19.30
2019-06-20T03:06:26.594Z,19.40
2019-06-20T03:08:57.169Z,19.50
2019-06-20T03:11:27.499Z,19.30
2019-06-20T03:13:57.806Z,19.50
2019-06-20T03:16:28.027Z,19.60
2019-06-20T03:18:58.341Z,19.70
2019-06-20T03:21:30.239Z,19.70
2019-06-20T03:24:00.533Z,19.80
2019-06-20T03:26:30.756Z,19.80
2019-06-20T03:29:00.996Z,19.70
2019-06-20T03:31:31.227Z,19.80
2019-06-20T03:34:01.533Z,19.90
2019-06-20T03:36:31.891Z,19.90
2019-06-20T03:39:02.135Z,19.90
2019-06-20T03:41:53.379Z,20.00
2019-06-20T03:44:23.896Z,20.10
2019-06-20T03:46:54.108Z,20.00
2019-06-20T03:49:24.423Z,20.10
2019-06-20T03:51:54.708Z,20.10
2019-06-20T03:54:24.950Z,20.00
2019-06-20T03:56:55.150Z,20.10
2019-06-20T03:59:25.389Z,20.10
2019-06-20T04:01:55.651Z,20.20
2019-06-20T04:04:25.979Z,20.40
2019-06-20T04:06:56.280Z,20.20
2019-06-20T04:09:28.692Z,20.30
2019-06-20T04:11:58.931Z,20.50
2019-06-20T04:14:29.702Z,20.60
2019-06-20T04:16:59.912Z,20.70
2019-06-20T04:19:30.285Z,20.70
2019-06-20T04:22:00.585Z,20.40
2019-06-20T04:24:30.821Z,20.10
2019-06-20T04:27:01.442Z,20.40
2019-06-20T04:29:35.888Z,20.70
2019-06-20T04:32:05.245Z,20.70
2019-06-20T04:34:35.506Z,20.90
2019-06-20T04:37:05.726Z,21.00
2019-06-20T04:39:36.028Z,21.00
2019-06-20T04:42:06.249Z,21.00
2019-06-20T04:44:36.621Z,21.10
2019-06-20T04:47:11.216Z,21.00
2019-06-20T04:49:41.505Z,20.90
2019-06-20T04:52:11.799Z,20.90
2019-06-20T04:54:42.040Z,20.80
2019-06-20T04:57:12.263Z,20.90
2019-06-20T04:59:42.490Z,20.90
2019-06-20T05:02:14.887Z,21.00
2019-06-20T05:04:44.620Z,21.00
2019-06-20T05:07:19.260Z,21.00
2019-06-20T05:09:49.560Z,20.90
2019-06-20T05:12:19.772Z,21.00
2019-06-20T05:14:50.046Z,21.00
2019-06-20T05:17:20.367Z,20.90
2019-06-20T05:19:50.693Z,20.70
2019-06-20T05:22:20.976Z,20.50
2019-06-20T05:24:51.405Z,20.20
2019-06-20T05:27:22.951Z,20.30
2019-06-20T05:29:53.256Z,20.00
2019-06-20T05:32:23.480Z,20.00
2019-06-20T05:34:53.788Z,20.10
2019-06-20T05:37:24.095Z,20.00
2019-06-20T05:39:54.332Z,20.40
2019-06-20T05:42:24.638Z,20.40
2019-06-20T05:44:54.855Z,20.60
2019-06-20T05:47:25.117Z,20.80
2019-06-20T05:49:55.327Z,20.90
2019-06-20T05:52:25.600Z,21.00
2019-06-20T05:54:56.758Z,21.10
2019-06-20T05:57:27.282Z,21.20
2019-06-20T06:00:18.573Z,21.20
2019-06-20T06:02:51.839Z,21.10
2019-06-20T06:05:22.091Z,21.40
2019-06-20T06:07:52.560Z,21.70
2019-06-20T06:10:23.230Z,21.70
2019-06-20T06:12:55.406Z,22.00
2019-06-20T06:15:25.625Z,22.20
2019-06-20T06:17:56.311Z,22.60
2019-06-20T06:20:26.649Z,22.80
2019-06-20T06:22:58.098Z,22.70
2019-06-20T06:25:28.331Z,22.70
2019-06-20T06:27:58.584Z,22.60
2019-06-20T06:30:28.774Z,22.60
2019-06-20T06:32:59.062Z,22.60
2019-06-20T06:35:29.284Z,22.70
2019-06-20T06:37:59.585Z,22.80
2019-06-20T06:40:29.791Z,22.70
2019-06-20T06:43:00.034Z,22.80
2019-06-20T06:45:30.347Z,22.60
2019-06-20T06:48:00.599Z,22.50
2019-06-20T06:50:30.903Z,22.30
2019-06-20T06:53:01.304Z,22.20
2019-06-20T06:55:32.782Z,22.30
2019-06-20T06:58:03.069Z,22.20
2019-06-20T07:00:33.273Z,21.90
2019-06-20T07:03:03.581Z,21.80
2019-06-20T07:05:33.812Z,22.20
2019-06-20T07:08:04.209Z,22.90
2019-06-20T07:10:34.743Z,23.50
2019-06-20T07:13:04.875Z,24.40
2019-06-20T07:15:35.115Z,24.70
2019-06-20T07:18:05.425Z,25.40
2019-06-20T07:20:35.716Z,26.30
2019-06-20T07:23:05.939Z,26.80
2019-06-20T07:25:36.149Z,27.00
2019-06-20T07:28:06.405Z,26.90
2019-06-20T07:30:36.613Z,26.70
2019-06-20T07:33:06.860Z,26.70
2019-06-20T07:35:40.416Z,26.20
2019-06-20T07:38:08.999Z,25.20
2019-06-20T07:40:39.207Z,24.90
2019-06-20T07:43:09.441Z,25.30
2019-06-20T07:45:39.631Z,25.60
2019-06-20T07:48:11.492Z,25.00
2019-06-20T07:50:41.718Z,24.80
2019-06-20T07:53:11.987Z,24.60
2019-06-20T07:55:42.324Z,24.30
2019-06-20T07:58:12.590Z,23.90
2019-06-20T08:00:42.869Z,23.10
2019-06-20T08:03:14.385Z,23.00
2019-06-20T08:05:44.662Z,22.90
2019-06-20T08:08:14.924Z,23.10
2019-06-20T08:10:45.132Z,23.30
2019-06-20T08:13:15.372Z,23.90
2019-06-20T08:15:45.791Z,24.20
2019-06-20T08:18:16.128Z,25.40
2019-06-20T08:20:46.448Z,26.40
2019-06-20T08:23:16.699Z,27.20
2019-06-20T08:25:47.040Z,27.40
2019-06-20T08:28:17.386Z,26.80
2019-06-20T08:30:47.634Z,26.60
2019-06-20T08:33:17.943Z,26.50
2019-06-20T08:35:48.392Z,26.90
2019-06-20T08:38:18.779Z,26.90
2019-06-20T08:40:49.066Z,26.90
2019-06-20T08:43:19.330Z,27.60
2019-06-20T08:45:49.557Z,27.80
2019-06-20T08:48:19.791Z,27.70
2019-06-20T08:50:50.168Z,27.00
2019-06-20T08:53:20.447Z,26.70
2019-06-20T08:55:50.681Z,26.10
2019-06-20T08:58:20.926Z,25.60
2019-06-20T09:00:51.497Z,25.20
2019-06-20T09:03:21.546Z,25.10
2019-06-20T09:05:51.753Z,25.20
2019-06-20T09:08:22.053Z,25.40
2019-06-20T09:10:54.171Z,24.70
2019-06-20T09:13:24.263Z,24.90
2019-06-20T09:15:54.827Z,25.10
2019-06-20T09:18:25.339Z,25.70
2019-06-20T09:20:55.956Z,26.60
2019-06-20T09:23:26.318Z,26.70
2019-06-20T09:25:57.552Z,27.00
2019-06-20T09:28:27.925Z,27.70
2019-06-20T09:30:59.221Z,28.10
2019-06-20T09:33:29.569Z,28.10
2019-06-20T09:35:59.909Z,27.80
2019-06-20T09:38:30.128Z,27.60
2019-06-20T09:41:00.361Z,27.10
2019-06-20T09:43:30.571Z,26.90
2019-06-20T09:46:00.811Z,26.80
2019-06-20T09:48:31.030Z,26.20
2019-06-20T09:51:01.266Z,25.60
2019-06-20T09:53:31.490Z,25.60
2019-06-20T09:56:01.794Z,25.80
2019-06-20T09:58:32.012Z,26.00
2019-06-20T10:01:02.264Z,25.30
2019-06-20T10:03:32.476Z,25.30
2019-06-20T10:06:12.813Z,24.90
2019-06-20T10:08:34.695Z,24.80
2019-06-20T10:11:04.999Z,24.70
2019-06-20T10:13:35.449Z,25.40
2019-06-20T10:16:05.690Z,25.60
2019-06-20T10:18:35.891Z,26.00
2019-06-20T10:21:06.215Z,26.70
2019-06-20T10:23:36.490Z,27.70
2019-06-20T10:26:06.732Z,28.40
2019-06-20T10:28:37.016Z,28.60
2019-06-20T10:31:07.318Z,27.90
2019-06-20T10:33:37.524Z,27.60
2019-06-20T10:36:07.781Z,28.60
2019-06-20T10:38:37.979Z,28.60
2019-06-20T10:41:08.362Z,29.00
2019-06-20T10:43:38.580Z,29.10
2019-06-20T10:46:08.908Z,29.30
2019-06-20T10:48:39.205Z,29.90
2019-06-20T10:51:29.400Z,30.50
2019-06-20T10:53:59.624Z,30.90
2019-06-20T10:56:29.891Z,30.20
2019-06-20T10:59:00.267Z,29.90
2019-06-20T11:01:32.164Z,29.90
2019-06-20T11:04:02.529Z,30.00
2019-06-20T11:06:32.870Z,29.80
2019-06-20T11:09:03.662Z,30.00
2019-06-20T11:11:35.531Z,30.00
2019-06-20T11:14:05.910Z,29.10
2019-06-20T11:16:36.360Z,28.90
2019-06-20T11:19:06.583Z,28.40
2019-06-20T11:21:38.002Z,28.30
2019-06-20T11:24:08.898Z,27.70
2019-06-20T11:26:39.404Z,27.10
2019-06-20T11:29:09.915Z,27.20
2019-06-20T11:31:43.426Z,26.60
2019-06-20T11:34:12.059Z,26.70
2019-06-20T11:36:42.461Z,26.10
2019-06-20T11:39:13.082Z,26.10
2019-06-20T11:41:43.692Z,26.50
2019-06-20T11:44:14.020Z,28.00
2019-06-20T11:46:47.103Z,29.30
2019-06-20T11:49:17.547Z,29.00
2019-06-20T11:51:50.574Z,28.40
2019-06-20T11:54:20.826Z,27.70
2019-06-20T11:56:51.051Z,27.70
2019-06-20T11:59:21.274Z,28.00
2019-06-20T12:01:51.525Z,28.00
2019-06-20T12:04:21.818Z,27.80
2019-06-20T12:06:52.066Z,27.60
2019-06-20T12:09:22.283Z,27.60
2019-06-20T12:11:52.584Z,28.70
2019-06-20T12:14:22.829Z,29.20
2019-06-20T12:16:54.586Z,29.30
2019-06-20T12:19:24.837Z,29.00
2019-06-20T12:21:55.175Z,28.60
2019-06-20T12:24:25.422Z,28.30
2019-06-20T12:26:55.709Z,27.50
2019-06-20T12:29:26.449Z,27.20
2019-06-20T12:31:56.687Z,27.90
2019-06-20T12:34:27.003Z,28.50
2019-06-20T12:36:57.253Z,29.80
2019-06-20T12:39:27.777Z,30.20
2019-06-20T12:41:58.082Z,30.00
2019-06-20T12:44:29.818Z,29.10
2019-06-20T12:47:00.025Z,28.50
2019-06-20T12:49:30.266Z,28.10
2019-06-20T12:52:01.509Z,28.00
2019-06-20T12:54:32.032Z,27.80
2019-06-20T12:57:02.060Z,28.10
2019-06-20T12:59:32.268Z,28.30
2019-06-20T13:02:02.476Z,29.10
2019-06-20T13:04:32.785Z,29.50
2019-06-20T13:07:03.047Z,29.20
2019-06-20T13:09:33.275Z,28.80
2019-06-20T13:12:03.529Z,28.60
2019-06-20T13:14:33.976Z,29.40
2019-06-20T13:17:04.198Z,29.70
2019-06-20T13:19:34.691Z,29.80
2019-06-20T13:22:08.188Z,29.70
2019-06-20T13:24:39.707Z,30.10
2019-06-20T13:27:10.388Z,30.00
2019-06-20T13:29:40.844Z,29.80
2019-06-20T13:32:11.085Z,29.40
2019-06-20T13:34:41.644Z,29.10
2019-06-20T13:37:15.628Z,29.20
2019-06-20T13:39:45.952Z,28.70
2019-06-20T13:42:16.449Z,28.60
2019-06-20T13:44:46.771Z,28.40
2019-06-20T13:47:17.872Z,28.30
2019-06-20T13:49:47.701Z,28.60
2019-06-20T13:52:17.816Z,29.20
2019-06-20T13:54:48.086Z,29.10
2019-06-20T13:57:19.315Z,28.80
2019-06-20T13:59:52.732Z,28.50
2019-06-20T14:02:21.715Z,28.60
2019-06-20T14:04:52.174Z,28.90
2019-06-20T14:07:22.535Z,28.80
2019-06-20T14:09:52.808Z,29.30
2019-06-20T14:12:23.025Z,28.80
2019-06-20T14:14:54.355Z,28.50
2019-06-20T14:17:24.912Z,28.00
2019-06-20T14:19:56.549Z,28.00
2019-06-20T14:22:27.013Z,28.50
2019-06-20T14:24:57.312Z,28.80
2019-06-20T14:27:27.553Z,28.80
2019-06-20T14:29:57.871Z,28.30
2019-06-20T14:32:28.063Z,28.10
2019-06-20T14:34:58.437Z,27.70
2019-06-20T14:37:28.701Z,27.90
2019-06-20T14:39:59.402Z,27.70
2019-06-20T14:42:29.612Z,27.80
2019-06-20T14:44:59.940Z,28.20
2019-06-20T14:47:30.160Z,28.80
2019-06-20T14:50:00.458Z,29.30
2019-06-20T14:52:31.907Z,29.00
2019-06-20T14:55:02.213Z,28.60
2019-06-20T14:57:32.414Z,28.20
2019-06-20T15:00:03.220Z,28.00
2019-06-20T15:02:38.571Z,27.80
2019-06-20T15:05:08.271Z,28.20
2019-06-20T15:07:39.391Z,28.50
2019-06-20T15:10:09.686Z,28.40
2019-06-20T15:12:39.891Z,28.30
2019-06-20T15:15:10.121Z,28.30
2019-06-20T15:17:40.320Z,28.80
2019-06-20T15:20:11.815Z,29.20
2019-06-20T15:22:42.565Z,29.40
2019-06-20T15:25:13.041Z,28.80
2019-06-20T15:27:43.267Z,28.80
2019-06-20T15:30:13.559Z,28.80
2019-06-20T15:32:55.292Z,28.40
2019-06-20T15:35:16.782Z,28.50
2019-06-20T15:37:48.380Z,28.30
2019-06-20T15:40:19.140Z,28.20
2019-06-20T15:42:51.115Z,28.10
2019-06-20T15:45:22.325Z,28.10
2019-06-20T15:47:52.809Z,28.50
2019-06-20T15:50:23.304Z,28.60
2019-06-20T15:52:53.492Z,28.10
2019-06-20T15:55:23.727Z,28.20
2019-06-20T15:57:54.399Z,28.50
2019-06-20T16:00:26.292Z,28.70
2019-06-20T16:03:08.736Z,28.50
2019-06-20T16:05:28.651Z,28.50
2019-06-20T16:07:58.880Z,28.20
2019-06-20T16:10:29.127Z,28.30
2019-06-20T16:12:59.482Z,27.80
2019-06-20T16:15:36.027Z,28.00
2019-06-20T16:18:06.438Z,28.00
2019-06-20T16:20:36.746Z,27.60
2019-06-20T16:23:06.974Z,27.70
2019-06-20T16:25:37.205Z,27.70
2019-06-20T16:28:07.422Z,27.20
2019-06-20T16:30:38.619Z,27.50
2019-06-20T16:33:23.851Z,27.50
2019-06-20T16:35:40.873Z,27.60
2019-06-20T16:38:11.099Z,28.00
2019-06-20T16:40:44.124Z,28.10
2019-06-20T16:43:14.332Z,28.20
2019-06-20T16:45:46.032Z,28.30
2019-06-20T16:48:17.887Z,28.20
2019-06-20T16:50:48.110Z,27.80
2019-06-20T16:53:18.467Z,27.60
2019-06-20T16:55:48.709Z,27.40
2019-06-20T16:58:18.987Z,26.80
2019-06-20T17:00:49.301Z,27.10
2019-06-20T17:03:19.866Z,27.30
2019-06-20T17:05:50.183Z,27.20
2019-06-20T17:08:20.423Z,27.00
2019-06-20T17:10:50.741Z,26.80
2019-06-20T17:13:21.027Z,26.90
2019-06-20T17:15:51.539Z,27.00
2019-06-20T17:18:23.527Z,27.00
2019-06-20T17:20:54.051Z,26.80
2019-06-20T17:23:24.299Z,26.40
2019-06-20T17:25:54.505Z,25.80
2019-06-20T17:28:24.810Z,25.90
2019-06-20T17:30:55.025Z,25.60
2019-06-20T17:33:25.285Z,25.40
2019-06-20T17:35:57.186Z,25.10
2019-06-20T17:38:27.566Z,24.90
2019-06-20T17:40:58.043Z,25.00
2019-06-20T17:43:28.521Z,25.10
2019-06-20T17:45:58.761Z,25.10
2019-06-20T17:48:29.055Z,25.20
2019-06-20T17:50:59.262Z,25.10
2019-06-20T17:53:30.291Z,24.90
2019-06-20T17:56:00.620Z,24.80
2019-06-20T17:58:30.899Z,24.80
2019-06-20T18:01:01.126Z,24.60
2019-06-20T18:03:31.431Z,24.10
2019-06-20T18:06:01.750Z,24.00
2019-06-20T18:08:31.983Z,23.80
2019-06-20T18:11:02.218Z,23.70
2019-06-20T18:13:32.471Z,23.70
2019-06-20T18:16:02.777Z,23.70
2019-06-20T18:18:33.118Z,23.60
2019-06-20T18:21:03.907Z,23.30
2019-06-20T18:23:33.972Z,23.20
2019-06-20T18:26:04.220Z,23.10
2019-06-20T18:28:34.476Z,23.10
2019-06-20T18:31:04.753Z,23.00
2019-06-20T18:33:34.987Z,22.80
2019-06-20T18:36:05.367Z,22.90
2019-06-20T18:38:35.853Z,22.80
2019-06-20T18:41:06.159Z,22.40
2019-06-20T18:43:36.451Z,22.30
2019-06-20T18:46:06.782Z,22.30
2019-06-20T18:48:37.100Z,22.40
2019-06-20T18:51:07.365Z,22.40
2019-06-20T18:53:37.600Z,22.50
2019-06-20T18:56:07.831Z,22.50
2019-06-20T18:58:38.454Z,22.30
2019-06-20T19:01:10.344Z,22.40
2019-06-20T19:03:40.780Z,22.20
2019-06-20T19:06:11.037Z,21.80
2019-06-20T19:08:41.367Z,21.80
2019-06-20T19:11:11.681Z,21.60
2019-06-20T19:13:41.886Z,21.70
2019-06-20T19:16:12.365Z,21.70
2019-06-20T19:18:42.680Z,21.60
2019-06-20T19:21:12.944Z,21.70
2019-06-20T19:23:43.262Z,21.70
2019-06-20T19:26:13.572Z,21.70
2019-06-20T19:28:43.945Z,21.90
2019-06-20T19:31:14.189Z,21.90
2019-06-20T19:33:44.615Z,21.90
2019-06-20T19:36:14.953Z,22.00
2019-06-20T19:38:46.081Z,22.00
2019-06-20T19:41:15.858Z,21.90
2019-06-20T19:43:49.021Z,21.80
2019-06-20T19:46:19.339Z,21.70
2019-06-20T19:48:49.572Z,21.60
2019-06-20T19:51:19.903Z,21.50
2019-06-20T19:53:50.169Z,21.40
2019-06-20T19:56:26.994Z,21.40
2019-06-20T19:59:00.307Z,21.20
2019-06-20T20:01:30.679Z,21.10
2019-06-20T20:04:01.211Z,21.00
2019-06-20T20:06:31.721Z,20.90
2019-06-20T20:09:02.568Z,20.80
2019-06-20T20:11:34.480Z,20.80
2019-06-20T20:14:04.972Z,20.70
2019-06-20T20:16:35.228Z,20.60
2019-06-20T20:19:05.771Z,20.50
2019-06-20T20:22:07.508Z,20.40
2019-06-20T20:24:38.278Z,20.20
2019-06-20T20:27:08.679Z,20.20
2019-06-20T20:29:38.942Z,20.10
2019-06-20T20:32:10.958Z,20.10
2019-06-20T20:34:41.184Z,20.00
2019-06-20T20:37:11.439Z,20.00
2019-06-20T20:39:43.372Z,20.00
2019-06-20T20:42:13.803Z,20.00
2019-06-20T20:44:44.095Z,19.80
2019-06-20T20:47:14.689Z,19.80
2019-06-20T20:49:45.315Z,19.70
2019-06-20T20:52:17.179Z,19.80
2019-06-20T20:54:47.445Z,19.70
2019-06-20T20:57:17.711Z,19.60
2019-06-20T20:59:50.997Z,19.60
2019-06-20T21:02:21.963Z,19.70
2019-06-20T21:04:53.332Z,19.50
2019-06-20T21:07:24.708Z,19.40
2019-06-20T21:09:58.395Z,19.30
2019-06-20T21:12:30.277Z,19.20
2019-06-20T21:15:00.512Z,19.20
2019-06-20T21:17:30.709Z,19.20
2019-06-20T21:20:01.112Z,19.10
2019-06-20T21:22:32.528Z,19.10
2019-06-20T21:25:03.249Z,19.10
2019-06-20T21:27:33.456Z,19.00
2019-06-20T21:30:04.863Z,18.90
2019-06-20T21:32:35.159Z,18.90
2019-06-20T21:45:53.758Z,18.50
2019-06-20T21:48:24.084Z,18.40
2019-06-20T21:50:54.471Z,18.40
2019-06-20T21:53:24.758Z,18.40
2019-06-20T21:55:54.994Z,18.40
2019-06-20T21:58:25.664Z,18.40
2019-06-20T22:01:14.069Z,18.40
2019-06-20T22:03:45.240Z,18.50
2019-06-20T22:06:23.860Z,18.40
2019-06-20T22:08:47.747Z,18.30
2019-06-20T22:11:18.060Z,18.30
2019-06-20T22:13:48.301Z,18.20
2019-06-20T22:16:18.606Z,18.10
2019-06-20T22:18:48.883Z,18.00
2019-06-20T22:21:19.111Z,18.00
2019-06-20T22:23:49.328Z,18.10
2019-06-20T22:26:19.569Z,18.10
2019-06-20T22:28:49.826Z,18.10
2019-06-20T22:31:20.861Z,18.00
2019-06-20T22:33:51.154Z,17.90
2019-06-20T22:36:21.462Z,17.90
2019-06-20T22:38:51.659Z,17.80
2019-06-20T22:41:21.910Z,17.70
2019-06-20T22:43:52.240Z,17.70
2019-06-20T22:46:22.553Z,17.70
2019-06-20T22:48:52.770Z,17.70
2019-06-20T22:51:22.999Z,17.50
2019-06-20T22:53:53.205Z,17.60
2019-06-20T22:56:23.461Z,17.50
2019-06-20T22:58:53.731Z,17.30
2019-06-20T23:01:23.975Z,17.20
2019-06-20T23:03:54.612Z,17.20
2019-06-20T23:06:24.921Z,17.00
2019-06-20T23:08:55.179Z,17.20
2019-06-20T23:11:25.511Z,17.20
2019-06-20T23:13:57.315Z,17.00
2019-06-20T23:16:29.639Z,17.20
2019-06-20T23:19:00.956Z,17.10
2019-06-20T23:21:31.178Z,17.00
2019-06-20T23:24:01.422Z,17.00
2019-06-20T23:26:31.645Z,17.00
2019-06-20T23:29:19.671Z,16.90
2019-06-20T23:31:50.516Z,17.00
2019-06-20T23:34:20.823Z,16.90
2019-06-20T23:36:52.831Z,17.00
2019-06-20T23:39:23.126Z,17.00
2019-06-20T23:41:53.328Z,16.90
2019-06-20T23:44:23.536Z,16.90
2019-06-20T23:46:53.892Z,17.00
2019-06-20T23:49:25.291Z,17.00
2019-06-20T23:51:59.322Z,17.00
2019-06-20T23:54:29.540Z,17.00
2019-06-20T23:56:59.857Z,17.00
2019-06-20T23:59:30.212Z,17.10
